sensor_id;sensor_type;location;lat;lon;timestamp;pressure;altitude;pressure_sealevel;temperature;humidity
12987;BME280;58897;51.960;5.582;2022-08-19T00:01:24;101023.22;;;19.69;92.31
12987;BME280;58897;51.960;5.582;2022-08-19T00:03:59;101009.97;;;19.66;92.57
12987;BME280;58897;51.960;5.582;2022-08-19T00:06:27;101009.13;;;19.66;92.11
12987;BME280;58897;51.960;5.582;2022-08-19T00:08:55;101016.53;;;19.59;92.99
12987;BME280;58897;51.960;5.582;2022-08-19T00:11:22;101012.09;;;19.64;92.12
12987;BME280;58897;51.960;5.582;2022-08-19T00:13:51;101010.63;;;19.62;92.50
12987;BME280;58897;51.960;5.582;2022-08-19T00:16:18;101008.06;;;19.67;91.93
12987;BME280;58897;51.960;5.582;2022-08-19T00:18:51;101027.91;;;19.62;91.96
12987;BME280;58897;51.960;5.582;2022-08-19T00:21:18;101026.47;;;19.53;92.93
12987;BME280;58897;51.960;5.582;2022-08-19T00:23:44;101027.75;;;19.51;93.01
12987;BME280;58897;51.960;5.582;2022-08-19T00:26:11;101024.34;;;19.55;92.58
12987;BME280;58897;51.960;5.582;2022-08-19T00:28:37;101026.66;;;19.58;93.12
12987;BME280;58897;51.960;5.582;2022-08-19T00:31:05;101015.94;;;19.50;93.13
12987;BME280;58897;51.960;5.582;2022-08-19T00:33:33;101016.16;;;19.49;92.83
12987;BME280;58897;51.960;5.582;2022-08-19T00:36:00;101020.13;;;19.53;92.50
12987;BME280;58897;51.960;5.582;2022-08-19T00:38:27;101011.72;;;19.48;93.04
12987;BME280;58897;51.960;5.582;2022-08-19T00:41:02;101013.44;;;19.42;93.31
12987;BME280;58897;51.960;5.582;2022-08-19T00:43:29;101010.50;;;19.44;92.98
12987;BME280;58897;51.960;5.582;2022-08-19T00:45:55;101019.56;;;19.31;94.12
12987;BME280;58897;51.960;5.582;2022-08-19T00:48:22;101021.25;;;19.39;93.56
12987;BME280;58897;51.960;5.582;2022-08-19T00:50:50;101020.63;;;19.30;94.21
12987;BME280;58897;51.960;5.582;2022-08-19T00:53:22;101014.09;;;19.38;93.61
12987;BME280;58897;51.960;5.582;2022-08-19T00:55:50;101019.56;;;19.38;93.33
12987;BME280;58897;51.960;5.582;2022-08-19T00:58:21;101017.69;;;19.32;93.77
12987;BME280;58897;51.960;5.582;2022-08-19T01:00:48;101026.09;;;19.30;93.92
12987;BME280;58897;51.960;5.582;2022-08-19T01:03:17;101027.78;;;19.25;93.97
12987;BME280;58897;51.960;5.582;2022-08-19T01:05:45;101019.38;;;19.20;94.20
12987;BME280;58897;51.960;5.582;2022-08-19T01:08:14;101029.91;;;19.23;94.07
12987;BME280;58897;51.960;5.582;2022-08-19T01:10:47;101019.56;;;19.25;94.33
12987;BME280;58897;51.960;5.582;2022-08-19T01:13:16;101021.06;;;19.21;94.21
12987;BME280;58897;51.960;5.582;2022-08-19T01:15:46;101014.53;;;19.22;94.01
12987;BME280;58897;51.960;5.582;2022-08-19T01:18:15;101019.81;;;19.17;94.78
12987;BME280;58897;51.960;5.582;2022-08-19T01:20:43;101019.56;;;19.25;94.53
12987;BME280;58897;51.960;5.582;2022-08-19T01:23:10;101013.72;;;19.21;94.54
12987;BME280;58897;51.960;5.582;2022-08-19T01:26:03;101016.44;;;19.21;94.12
12987;BME280;58897;51.960;5.582;2022-08-19T01:28:29;101033.72;;;19.08;95.56
12987;BME280;58897;51.960;5.582;2022-08-19T01:31:07;101038.38;;;19.08;95.16
12987;BME280;58897;51.960;5.582;2022-08-19T01:33:34;101041.94;;;19.08;94.62
12987;BME280;58897;51.960;5.582;2022-08-19T01:36:11;101034.19;;;19.05;94.53
12987;BME280;58897;51.960;5.582;2022-08-19T01:38:41;101033.53;;;19.03;94.95
12987;BME280;58897;51.960;5.582;2022-08-19T01:41:11;101032.28;;;18.99;94.82
12987;BME280;58897;51.960;5.582;2022-08-19T01:43:38;101029.75;;;19.04;94.59
12987;BME280;58897;51.960;5.582;2022-08-19T01:46:24;101016.72;;;19.00;94.68
12987;BME280;58897;51.960;5.582;2022-08-19T01:48:51;101020.50;;;18.99;94.63
12987;BME280;58897;51.960;5.582;2022-08-19T01:51:17;101023.84;;;19.01;94.86
12987;BME280;58897;51.960;5.582;2022-08-19T01:53:47;101027.25;;;18.90;95.46
12987;BME280;58897;51.960;5.582;2022-08-19T01:56:15;101027.69;;;18.87;96.19
12987;BME280;58897;51.960;5.582;2022-08-19T01:58:46;101025.78;;;18.81;96.16
12987;BME280;58897;51.960;5.582;2022-08-19T02:01:15;101019.69;;;18.66;97.25
12987;BME280;58897;51.960;5.582;2022-08-19T02:03:42;101025.38;;;18.64;97.42
12987;BME280;58897;51.960;5.582;2022-08-19T02:06:09;101026.00;;;18.73;96.91
12987;BME280;58897;51.960;5.582;2022-08-19T02:08:37;101020.50;;;18.86;95.93
12987;BME280;58897;51.960;5.582;2022-08-19T02:11:05;101024.94;;;18.87;96.15
12987;BME280;58897;51.960;5.582;2022-08-19T02:13:33;101029.38;;;18.81;95.83
12987;BME280;58897;51.960;5.582;2022-08-19T02:16:00;101033.16;;;18.87;96.05
12987;BME280;58897;51.960;5.582;2022-08-19T02:18:29;101038.59;;;18.93;95.67
12987;BME280;58897;51.960;5.582;2022-08-19T02:20:56;101038.84;;;18.92;95.35
12987;BME280;58897;51.960;5.582;2022-08-19T02:23:22;101047.03;;;18.85;95.86
12987;BME280;58897;51.960;5.582;2022-08-19T02:25:51;101043.47;;;18.85;95.71
12987;BME280;58897;51.960;5.582;2022-08-19T02:28:18;101044.31;;;18.85;95.79
12987;BME280;58897;51.960;5.582;2022-08-19T02:30:45;101045.78;;;18.81;96.06
12987;BME280;58897;51.960;5.582;2022-08-19T02:33:12;101049.78;;;18.85;95.64
12987;BME280;58897;51.960;5.582;2022-08-19T02:35:43;101053.19;;;18.61;97.16
12987;BME280;58897;51.960;5.582;2022-08-19T02:38:10;101052.31;;;18.67;96.10
12987;BME280;58897;51.960;5.582;2022-08-19T02:40:57;101060.72;;;18.59;96.69
12987;BME280;58897;51.960;5.582;2022-08-19T02:43:25;101054.66;;;18.64;96.59
12987;BME280;58897;51.960;5.582;2022-08-19T02:45:53;101043.91;;;18.69;95.30
12987;BME280;58897;51.960;5.582;2022-08-19T02:48:21;101043.28;;;18.60;95.74
12987;BME280;58897;51.960;5.582;2022-08-19T02:50:50;101047.03;;;18.72;95.79
12987;BME280;58897;51.960;5.582;2022-08-19T02:53:22;101055.25;;;18.59;96.90
12987;BME280;58897;51.960;5.582;2022-08-19T02:55:49;101052.31;;;18.54;97.02
12987;BME280;58897;51.960;5.582;2022-08-19T02:58:18;101045.19;;;18.53;97.82
12987;BME280;58897;51.960;5.582;2022-08-19T03:00:47;101055.47;;;18.51;97.79
12987;BME280;58897;51.960;5.582;2022-08-19T03:03:15;101052.53;;;18.53;97.58
12987;BME280;58897;51.960;5.582;2022-08-19T03:05:42;101059.47;;;18.55;97.43
12987;BME280;58897;51.960;5.582;2022-08-19T03:08:21;101058.19;;;18.51;99.16
12987;BME280;58897;51.960;5.582;2022-08-19T03:10:47;101052.31;;;18.54;97.96
12987;BME280;58897;51.960;5.582;2022-08-19T03:13:16;101045.38;;;18.52;98.28
12987;BME280;58897;51.960;5.582;2022-08-19T03:15:45;101036.56;;;18.56;98.88
12987;BME280;58897;51.960;5.582;2022-08-19T03:18:13;101043.06;;;18.55;98.12
12987;BME280;58897;51.960;5.582;2022-08-19T03:20:46;101045.38;;;18.58;97.84
12987;BME280;58897;51.960;5.582;2022-08-19T03:23:13;101050.84;;;18.58;97.44
12987;BME280;58897;51.960;5.582;2022-08-19T03:25:44;101048.53;;;18.55;97.73
12987;BME280;58897;51.960;5.582;2022-08-19T03:28:12;101061.16;;;18.56;98.56
12987;BME280;58897;51.960;5.582;2022-08-19T03:30:40;101061.38;;;18.48;97.75
12987;BME280;58897;51.960;5.582;2022-08-19T03:33:10;101054.41;;;18.52;98.34
12987;BME280;58897;51.960;5.582;2022-08-19T03:35:43;101050.66;;;18.53;98.66
12987;BME280;58897;51.960;5.582;2022-08-19T03:38:11;101053.78;;;18.57;99.21
12987;BME280;58897;51.960;5.582;2022-08-19T03:40:37;101049.78;;;18.53;98.38
12987;BME280;58897;51.960;5.582;2022-08-19T03:43:04;101042.63;;;18.52;97.74
12987;BME280;58897;51.960;5.582;2022-08-19T03:45:31;101038.00;;;18.45;98.22
12987;BME280;58897;51.960;5.582;2022-08-19T03:47:58;101043.91;;;18.49;97.78
12987;BME280;58897;51.960;5.582;2022-08-19T03:50:24;101046.63;;;18.49;97.99
12987;BME280;58897;51.960;5.582;2022-08-19T03:52:51;101043.28;;;18.47;98.44
12987;BME280;58897;51.960;5.582;2022-08-19T03:55:18;101046.63;;;18.49;98.66
12987;BME280;58897;51.960;5.582;2022-08-19T03:57:45;101040.06;;;18.43;98.47
12987;BME280;58897;51.960;5.582;2022-08-19T04:00:12;101040.94;;;18.37;98.95
12987;BME280;58897;51.960;5.582;2022-08-19T04:02:40;101036.91;;;18.33;99.47
12987;BME280;58897;51.960;5.582;2022-08-19T04:05:23;101039.63;;;18.33;98.97
12987;BME280;58897;51.960;5.582;2022-08-19T04:07:53;101038.81;;;18.39;98.08
12987;BME280;58897;51.960;5.582;2022-08-19T04:10:19;101037.97;;;18.32;98.88
12987;BME280;58897;51.960;5.582;2022-08-19T04:12:45;101040.47;;;18.14;100.00
12987;BME280;58897;51.960;5.582;2022-08-19T04:15:14;101037.53;;;18.29;98.61
12987;BME280;58897;51.960;5.582;2022-08-19T04:17:41;101032.47;;;18.26;99.22
12987;BME280;58897;51.960;5.582;2022-08-19T04:20:08;101025.97;;;18.14;100.00
12987;BME280;58897;51.960;5.582;2022-08-19T04:22:34;101033.97;;;18.22;99.56
12987;BME280;58897;51.960;5.582;2022-08-19T04:25:01;101023.25;;;18.27;98.29
12987;BME280;58897;51.960;5.582;2022-08-19T04:27:27;101023.44;;;18.19;98.75
12987;BME280;58897;51.960;5.582;2022-08-19T04:29:54;101023.22;;;18.20;99.33
12987;BME280;58897;51.960;5.582;2022-08-19T04:32:21;101023.66;;;18.24;99.22
12987;BME280;58897;51.960;5.582;2022-08-19T04:34:48;101014.59;;;18.23;99.74
12987;BME280;58897;51.960;5.582;2022-08-19T04:37:35;101023.19;;;18.07;100.00
12987;BME280;58897;51.960;5.582;2022-08-19T04:40:04;101029.31;;;18.09;100.00
12987;BME280;58897;51.960;5.582;2022-08-19T04:42:49;101021.53;;;18.26;99.43
12987;BME280;58897;51.960;5.582;2022-08-19T04:45:16;101019.25;;;18.29;99.14
12987;BME280;58897;51.960;5.582;2022-08-19T04:47:43;101017.34;;;18.23;99.93
12987;BME280;58897;51.960;5.582;2022-08-19T04:50:23;101021.75;;;18.31;100.00
12987;BME280;58897;51.960;5.582;2022-08-19T04:52:51;101023.66;;;18.30;99.39
12987;BME280;58897;51.960;5.582;2022-08-19T04:55:18;101021.78;;;18.37;98.78
12987;BME280;58897;51.960;5.582;2022-08-19T04:57:45;101031.84;;;18.24;99.90
12987;BME280;58897;51.960;5.582;2022-08-19T05:00:12;101041.72;;;18.18;99.74
12987;BME280;58897;51.960;5.582;2022-08-19T05:02:39;101042.78;;;18.17;100.00
12987;BME280;58897;51.960;5.582;2022-08-19T05:05:05;101043.66;;;18.24;100.00
12987;BME280;58897;51.960;5.582;2022-08-19T05:07:33;101036.69;;;18.22;100.00
12987;BME280;58897;51.960;5.582;2022-08-19T05:10:00;101031.03;;;18.30;99.81
12987;BME280;58897;51.960;5.582;2022-08-19T05:12:27;101039.00;;;18.31;100.00
12987;BME280;58897;51.960;5.582;2022-08-19T05:14:56;101034.81;;;18.29;100.00
12987;BME280;58897;51.960;5.582;2022-08-19T05:17:25;101037.94;;;18.26;100.00
12987;BME280;58897;51.960;5.582;2022-08-19T05:19:55;101036.69;;;18.22;100.00
12987;BME280;58897;51.960;5.582;2022-08-19T05:22:42;101037.53;;;18.35;100.00
12987;BME280;58897;51.960;5.582;2022-08-19T05:25:13;101033.56;;;18.44;100.00
12987;BME280;58897;51.960;5.582;2022-08-19T05:27:41;101044.50;;;18.44;100.00
12987;BME280;58897;51.960;5.582;2022-08-19T05:30:09;101048.13;;;18.58;100.00
12987;BME280;58897;51.960;5.582;2022-08-19T05:32:37;101055.47;;;18.71;99.59
12987;BME280;58897;51.960;5.582;2022-08-19T05:35:04;101055.28;;;18.53;100.00
12987;BME280;58897;51.960;5.582;2022-08-19T05:37:31;101061.38;;;18.61;100.00
12987;BME280;58897;51.960;5.582;2022-08-19T05:39:58;101066.41;;;18.64;100.00
12987;BME280;58897;51.960;5.582;2022-08-19T05:42:24;101067.88;;;18.67;100.00
12987;BME280;58897;51.960;5.582;2022-08-19T05:44:51;101063.69;;;18.84;100.00
12987;BME280;58897;51.960;5.582;2022-08-19T05:47:18;101048.97;;;18.85;100.00
12987;BME280;58897;51.960;5.582;2022-08-19T05:49:47;101057.16;;;18.85;99.15
12987;BME280;58897;51.960;5.582;2022-08-19T05:52:15;101070.63;;;18.99;98.90
12987;BME280;58897;51.960;5.582;2022-08-19T05:54:45;101075.06;;;18.87;99.34
12987;BME280;58897;51.960;5.582;2022-08-19T05:57:17;101076.97;;;18.74;99.66
12987;BME280;58897;51.960;5.582;2022-08-19T05:59:44;101078.16;;;18.45;100.00
12987;BME280;58897;51.960;5.582;2022-08-19T06:02:14;101069.13;;;18.51;100.00
12987;BME280;58897;51.960;5.582;2022-08-19T06:04:40;101074.34;;;18.33;100.00
12987;BME280;58897;51.960;5.582;2022-08-19T06:07:09;101072.13;;;18.56;100.00
12987;BME280;58897;51.960;5.582;2022-08-19T06:09:38;101077.38;;;18.71;100.00
12987;BME280;58897;51.960;5.582;2022-08-19T06:12:05;101079.69;;;18.74;100.00
12987;BME280;58897;51.960;5.582;2022-08-19T06:14:34;101081.38;;;18.81;100.00
12987;BME280;58897;51.960;5.582;2022-08-19T06:17:07;101066.19;;;18.72;100.00
12987;BME280;58897;51.960;5.582;2022-08-19T06:19:33;101071.06;;;18.90;100.00
12987;BME280;58897;51.960;5.582;2022-08-19T06:22:06;101060.31;;;18.88;100.00
12987;BME280;58897;51.960;5.582;2022-08-19T06:24:32;101063.25;;;18.87;100.00
12987;BME280;58897;51.960;5.582;2022-08-19T06:27:00;101055.84;;;19.20;99.96
12987;BME280;58897;51.960;5.582;2022-08-19T06:29:27;101041.50;;;19.31;98.68
12987;BME280;58897;51.960;5.582;2022-08-19T06:31:57;101051.38;;;19.32;98.87
12987;BME280;58897;51.960;5.582;2022-08-19T06:34:25;101060.66;;;19.31;99.04
12987;BME280;58897;51.960;5.582;2022-08-19T06:36:54;101063.81;;;19.22;99.37
12987;BME280;58897;51.960;5.582;2022-08-19T06:39:26;101068.88;;;19.38;99.12
12987;BME280;58897;51.960;5.582;2022-08-19T06:41:56;101064.44;;;19.37;98.38
12987;BME280;58897;51.960;5.582;2022-08-19T06:44:26;101061.06;;;19.35;98.24
12987;BME280;58897;51.960;5.582;2022-08-19T06:46:54;101062.31;;;19.45;97.41
12987;BME280;58897;51.960;5.582;2022-08-19T06:49:22;101068.22;;;19.49;97.67
12987;BME280;58897;51.960;5.582;2022-08-19T06:51:49;101061.84;;;19.61;96.08
12987;BME280;58897;51.960;5.582;2022-08-19T06:54:18;101061.41;;;19.64;96.76
12987;BME280;58897;51.960;5.582;2022-08-19T06:56:46;101069.69;;;19.51;98.06
12987;BME280;58897;51.960;5.582;2022-08-19T06:59:15;101064.84;;;19.47;97.24
12987;BME280;58897;51.960;5.582;2022-08-19T07:01:49;101062.88;;;19.67;96.30
12987;BME280;58897;51.960;5.582;2022-08-19T07:04:20;101062.03;;;19.66;95.19
12987;BME280;58897;51.960;5.582;2022-08-19T07:06:47;101069.91;;;19.50;97.88
12987;BME280;58897;51.960;5.582;2022-08-19T07:09:20;101072.94;;;19.86;95.43
12987;BME280;58897;51.960;5.582;2022-08-19T07:11:49;101074.75;;;19.99;94.51
12987;BME280;58897;51.960;5.582;2022-08-19T07:14:19;101067.69;;;20.16;93.64
12987;BME280;58897;51.960;5.582;2022-08-19T07:16:48;101079.56;;;20.03;93.91
12987;BME280;58897;51.960;5.582;2022-08-19T07:19:17;101081.38;;;20.22;92.78
12987;BME280;58897;51.960;5.582;2022-08-19T07:21:48;101075.84;;;20.29;92.69
12987;BME280;58897;51.960;5.582;2022-08-19T07:24:16;101080.78;;;20.14;92.00
12987;BME280;58897;51.960;5.582;2022-08-19T07:26:43;101080.59;;;20.09;91.88
12987;BME280;58897;51.960;5.582;2022-08-19T07:29:11;101078.50;;;20.42;90.05
12987;BME280;58897;51.960;5.582;2022-08-19T07:31:39;101082.50;;;20.46;89.93
12987;BME280;58897;51.960;5.582;2022-08-19T07:34:10;101081.66;;;20.70;88.31
12987;BME280;58897;51.960;5.582;2022-08-19T07:36:39;101075.84;;;21.52;83.60
12987;BME280;58897;51.960;5.582;2022-08-19T07:39:16;101075.84;;;21.52;84.33
12987;BME280;58897;51.960;5.582;2022-08-19T07:41:44;101082.22;;;21.28;84.97
12987;BME280;58897;51.960;5.582;2022-08-19T07:44:11;101086.72;;;20.98;86.58
12987;BME280;58897;51.960;5.582;2022-08-19T07:46:44;101086.44;;;20.81;87.29
12987;BME280;58897;51.960;5.582;2022-08-19T07:49:14;101080.78;;;21.01;87.01
12987;BME280;58897;51.960;5.582;2022-08-19T07:51:47;101076.88;;;20.90;87.08
12987;BME280;58897;51.960;5.582;2022-08-19T07:54:14;101088.81;;;21.27;85.21
12987;BME280;58897;51.960;5.582;2022-08-19T07:56:41;101085.88;;;21.40;86.02
12987;BME280;58897;51.960;5.582;2022-08-19T07:59:07;101089.75;;;21.15;87.20
12987;BME280;58897;51.960;5.582;2022-08-19T08:01:35;101086.34;;;21.19;84.69
12987;BME280;58897;51.960;5.582;2022-08-19T08:04:07;101092.66;;;22.40;81.36
12987;BME280;58897;51.960;5.582;2022-08-19T08:06:53;101102.81;;;22.40;80.35
12987;BME280;58897;51.960;5.582;2022-08-19T08:09:42;101101.56;;;22.54;78.45
12987;BME280;58897;51.960;5.582;2022-08-19T08:12:21;101104.16;;;22.67;76.74
12987;BME280;58897;51.960;5.582;2022-08-19T08:15:03;101117.56;;;22.75;77.35
12987;BME280;58897;51.960;5.582;2022-08-19T08:17:34;101112.34;;;23.08;73.89
12987;BME280;58897;51.960;5.582;2022-08-19T08:20:17;101119.06;;;23.35;74.04
12987;BME280;58897;51.960;5.582;2022-08-19T08:22:46;101114.88;;;23.21;74.03
12987;BME280;58897;51.960;5.582;2022-08-19T08:25:31;101113.44;;;23.42;72.73
12987;BME280;58897;51.960;5.582;2022-08-19T08:28:01;101119.78;;;22.96;75.28
12987;BME280;58897;51.960;5.582;2022-08-19T08:30:29;101110.63;;;24.28;70.83
12987;BME280;58897;51.960;5.582;2022-08-19T08:32:58;101108.31;;;24.37;68.56
12987;BME280;58897;51.960;5.582;2022-08-19T08:35:24;101113.97;;;23.90;71.07
12987;BME280;58897;51.960;5.582;2022-08-19T08:37:53;101121.09;;;23.28;72.64
12987;BME280;58897;51.960;5.582;2022-08-19T08:40:26;101127.22;;;23.42;72.27
12987;BME280;58897;51.960;5.582;2022-08-19T08:46:12;101132.63;;;24.68;67.08
12987;BME280;58897;51.960;5.582;2022-08-19T08:51:33;101140.84;;;24.35;68.82
12987;BME280;58897;51.960;5.582;2022-08-19T08:54:04;101139.38;;;24.89;66.58
12987;BME280;58897;51.960;5.582;2022-08-19T08:56:35;101155.91;;;23.41;70.16
12987;BME280;58897;51.960;5.582;2022-08-19T08:59:19;101151.81;;;23.55;70.52
12987;BME280;58897;51.960;5.582;2022-08-19T09:01:47;101153.22;;;23.23;71.26
12987;BME280;58897;51.960;5.582;2022-08-19T09:04:14;101158.31;;;24.12;67.98
12987;BME280;58897;51.960;5.582;2022-08-19T09:06:55;101158.41;;;23.54;69.41
12987;BME280;58897;51.960;5.582;2022-08-19T09:09:35;101144.00;;;24.72;65.45
12987;BME280;58897;51.960;5.582;2022-08-19T09:12:31;101145.34;;;24.97;64.88
12987;BME280;58897;51.960;5.582;2022-08-19T09:15:06;101140.56;;;24.93;66.37
12987;BME280;58897;51.960;5.582;2022-08-19T09:17:34;101130.59;;;26.23;61.08
12987;BME280;58897;51.960;5.582;2022-08-19T09:22:40;101132.72;;;25.73;62.04
12987;BME280;58897;51.960;5.582;2022-08-19T09:25:08;101128.50;;;24.54;66.25
12987;BME280;58897;51.960;5.582;2022-08-19T09:27:37;101140.03;;;23.71;69.01
12987;BME280;58897;51.960;5.582;2022-08-19T09:30:21;101136.41;;;25.45;63.87
12987;BME280;58897;51.960;5.582;2022-08-19T09:32:49;101133.38;;;25.80;62.76
12987;BME280;58897;51.960;5.582;2022-08-19T09:35:24;101125.25;;;25.02;64.05
12987;BME280;58897;51.960;5.582;2022-08-19T09:37:54;101130.59;;;26.02;60.94
12987;BME280;58897;51.960;5.582;2022-08-19T09:40:26;101140.16;;;27.18;57.17
12987;BME280;58897;51.960;5.582;2022-08-19T09:42:55;101139.81;;;26.29;59.75
12987;BME280;58897;51.960;5.582;2022-08-19T09:45:23;101138.47;;;24.83;64.15
12987;BME280;58897;51.960;5.582;2022-08-19T09:47:51;101135.34;;;24.80;66.13
12987;BME280;58897;51.960;5.582;2022-08-19T09:50:21;101136.38;;;25.78;63.24
12987;BME280;58897;51.960;5.582;2022-08-19T09:52:48;101133.13;;;26.25;61.28
12987;BME280;58897;51.960;5.582;2022-08-19T09:55:22;101139.75;;;26.24;59.87
12987;BME280;58897;51.960;5.582;2022-08-19T09:57:49;101138.31;;;27.33;57.16
12987;BME280;58897;51.960;5.582;2022-08-19T10:00:15;101147.03;;;27.89;54.45
12987;BME280;58897;51.960;5.582;2022-08-19T10:02:42;101150.16;;;26.38;58.44
12987;BME280;58897;51.960;5.582;2022-08-19T10:05:11;101141.06;;;25.06;64.12
12987;BME280;58897;51.960;5.582;2022-08-19T10:08:08;101153.72;;;24.58;65.76
12987;BME280;58897;51.960;5.582;2022-08-19T10:10:40;101148.50;;;24.44;66.68
12987;BME280;58897;51.960;5.582;2022-08-19T10:13:15;101148.09;;;24.69;65.76
12987;BME280;58897;51.960;5.582;2022-08-19T10:15:42;101132.31;;;26.78;58.40
12987;BME280;58897;51.960;5.582;2022-08-19T10:18:13;101136.50;;;27.12;57.80
12987;BME280;58897;51.960;5.582;2022-08-19T10:20:39;101137.75;;;26.94;57.59
12987;BME280;58897;51.960;5.582;2022-08-19T10:23:09;101133.09;;;27.37;56.73
12987;BME280;58897;51.960;5.582;2022-08-19T10:25:35;101138.25;;;27.60;55.91
12987;BME280;58897;51.960;5.582;2022-08-19T10:28:04;101139.09;;;28.12;53.73
12987;BME280;58897;51.960;5.582;2022-08-19T10:30:36;101141.31;;;26.15;59.95
12987;BME280;58897;51.960;5.582;2022-08-19T10:33:03;101147.84;;;26.09;61.20
12987;BME280;58897;51.960;5.582;2022-08-19T10:35:36;101142.44;;;27.63;56.02
12987;BME280;58897;51.960;5.582;2022-08-19T10:38:22;101142.38;;;27.52;57.25
12987;BME280;58897;51.960;5.582;2022-08-19T10:40:58;101145.53;;;26.01;60.18
12987;BME280;58897;51.960;5.582;2022-08-19T10:43:32;101139.19;;;25.45;62.30
12987;BME280;58897;51.960;5.582;2022-08-19T10:46:04;101138.31;;;25.23;63.08
12987;BME280;58897;51.960;5.582;2022-08-19T10:48:40;101128.00;;;25.52;63.07
12987;BME280;58897;51.960;5.582;2022-08-19T10:51:08;101138.06;;;26.01;60.25
12987;BME280;58897;51.960;5.582;2022-08-19T10:53:54;101140.97;;;25.35;62.48
12987;BME280;58897;51.960;5.582;2022-08-19T10:56:21;101133.34;;;26.45;59.31
12987;BME280;58897;51.960;5.582;2022-08-19T10:59:07;101126.97;;;26.98;58.74
12987;BME280;58897;51.960;5.582;2022-08-19T11:01:34;101121.22;;;26.78;58.89
12987;BME280;58897;51.960;5.582;2022-08-19T11:04:04;101130.38;;;26.78;59.37
12987;BME280;58897;51.960;5.582;2022-08-19T11:06:31;101121.13;;;27.31;57.88
12987;BME280;58897;51.960;5.582;2022-08-19T11:08:58;101122.97;;;26.84;58.77
12987;BME280;58897;51.960;5.582;2022-08-19T11:11:26;101122.06;;;27.94;56.23
12987;BME280;58897;51.960;5.582;2022-08-19T11:13:53;101118.56;;;27.67;57.99
12987;BME280;58897;51.960;5.582;2022-08-19T11:16:22;101116.41;;;27.74;56.07
12987;BME280;58897;51.960;5.582;2022-08-19T11:18:51;101111.72;;;28.51;54.50
12987;BME280;58897;51.960;5.582;2022-08-19T11:21:21;101120.09;;;28.61;53.80
12987;BME280;58897;51.960;5.582;2022-08-19T11:23:51;101124.31;;;27.45;56.72
12987;BME280;58897;51.960;5.582;2022-08-19T11:26:19;101126.06;;;28.18;55.85
12987;BME280;58897;51.960;5.582;2022-08-19T11:28:47;101125.50;;;28.21;55.01
12987;BME280;58897;51.960;5.582;2022-08-19T11:31:18;101122.44;;;28.12;54.75
12987;BME280;58897;51.960;5.582;2022-08-19T11:33:46;101118.75;;;27.45;58.58
12987;BME280;58897;51.960;5.582;2022-08-19T11:36:13;101111.91;;;28.14;55.00
12987;BME280;58897;51.960;5.582;2022-08-19T11:38:40;101120.59;;;27.34;57.38
12987;BME280;58897;51.960;5.582;2022-08-19T11:41:07;101109.75;;;26.16;60.71
12987;BME280;58897;51.960;5.582;2022-08-19T11:43:34;101114.22;;;27.39;58.00
12987;BME280;58897;51.960;5.582;2022-08-19T11:46:07;101109.28;;;28.75;54.41
12987;BME280;58897;51.960;5.582;2022-08-19T11:48:36;101105.38;;;28.81;54.57
12987;BME280;58897;51.960;5.582;2022-08-19T11:51:06;101111.44;;;27.76;55.55
12987;BME280;58897;51.960;5.582;2022-08-19T11:53:33;101105.78;;;28.12;55.64
12987;BME280;58897;51.960;5.582;2022-08-19T11:56:01;101104.38;;;27.53;57.06
12987;BME280;58897;51.960;5.582;2022-08-19T11:58:27;101103.59;;;28.35;55.00
12987;BME280;58897;51.960;5.582;2022-08-19T12:00:55;101103.81;;;27.56;57.05
12987;BME280;58897;51.960;5.582;2022-08-19T12:03:23;101108.38;;;26.98;58.40
12987;BME280;58897;51.960;5.582;2022-08-19T12:05:50;101116.06;;;27.23;58.21
12987;BME280;58897;51.960;5.582;2022-08-19T12:08:17;101111.91;;;28.20;55.58
12987;BME280;58897;51.960;5.582;2022-08-19T12:10:44;101109.63;;;28.01;55.46
12987;BME280;58897;51.960;5.582;2022-08-19T12:13:12;101111.69;;;27.74;56.11
12987;BME280;58897;51.960;5.582;2022-08-19T12:15:46;101116.59;;;26.88;58.73
12987;BME280;58897;51.960;5.582;2022-08-19T12:18:13;101106.28;;;27.11;58.77
12987;BME280;58897;51.960;5.582;2022-08-19T12:20:42;101117.75;;;26.39;60.38
12987;BME280;58897;51.960;5.582;2022-08-19T12:23:09;101110.97;;;26.52;60.49
12987;BME280;58897;51.960;5.582;2022-08-19T12:25:42;101109.50;;;26.17;62.58
12987;BME280;58897;51.960;5.582;2022-08-19T12:28:09;101111.09;;;26.35;62.00
12987;BME280;58897;51.960;5.582;2022-08-19T12:30:37;101106.66;;;27.66;57.66
12987;BME280;58897;51.960;5.582;2022-08-19T12:33:04;101107.53;;;26.66;59.81
12987;BME280;58897;51.960;5.582;2022-08-19T12:35:30;101115.19;;;25.89;63.26
12987;BME280;58897;51.960;5.582;2022-08-19T12:37:57;101099.31;;;26.01;62.61
12987;BME280;58897;51.960;5.582;2022-08-19T12:40:24;101090.25;;;26.86;59.83
12987;BME280;58897;51.960;5.582;2022-08-19T12:42:52;101096.56;;;27.45;57.76
12987;BME280;58897;51.960;5.582;2022-08-19T12:45:19;101083.59;;;27.61;57.13
12987;BME280;58897;51.960;5.582;2022-08-19T12:47:46;101083.75;;;27.02;58.86
12987;BME280;58897;51.960;5.582;2022-08-19T12:50:14;101093.91;;;26.33;60.75
12987;BME280;58897;51.960;5.582;2022-08-19T12:52:41;101094.50;;;25.70;63.57
12987;BME280;58897;51.960;5.582;2022-08-19T12:55:09;101080.28;;;26.58;61.69
12987;BME280;58897;51.960;5.582;2022-08-19T12:57:37;101078.78;;;27.46;58.70
12987;BME280;58897;51.960;5.582;2022-08-19T13:00:14;101086.16;;;27.30;59.08
12987;BME280;58897;51.960;5.582;2022-08-19T13:02:45;101088.81;;;26.78;59.40
12987;BME280;58897;51.960;5.582;2022-08-19T13:05:16;101087.56;;;26.38;60.24
12987;BME280;58897;51.960;5.582;2022-08-19T13:07:46;101085.69;;;25.73;63.35
12987;BME280;58897;51.960;5.582;2022-08-19T13:10:14;101085.41;;;25.74;63.48